Time;durP1;ratioP1;P1;durP2;ratioP2;P2;SDS_P1;SDS_P2;PMS_P1;PMS_P2;Temp;Humidity;BMP_temperature;BMP_pressure;BME280_temperature;BME280_humidity;BME280_pressure;Samples;Min_cycle;Max_cycle;Signal;HPM_P1;HPM_P2
2021/03/20 00:09:56;;;;;;;0.20;0.10;;;8.20;99.90;;;;;;20539524;28;20239;-71
2021/03/20 00:20:00;;;;;;;0.27;0.27;;;7.90;99.90;;;;;;20534763;28;20631;-73
2021/03/20 00:30:06;;;;;;;0.53;0.53;;;7.70;99.90;;;;;;20532374;28;20232;-72
2021/03/20 00:40:14;;;;;;;0.20;0.10;;;7.00;99.90;;;;;;20527992;28;20332;-72
2021/03/20 00:50:18;;;;;;;0.20;0.17;;;6.70;99.90;;;;;;20529579;28;20335;-72
2021/03/20 01:00:26;;;;;;;0.30;0.30;;;6.70;99.90;;;;;;20519105;23;698363;-71
2021/03/20 01:10:29;;;;;;;0.20;0.10;;;7.00;99.90;;;;;;20532654;28;20326;-72
2021/03/20 01:20:33;;;;;;;0.23;0.17;;;8.00;99.90;;;;;;20534504;28;20198;-71
2021/03/20 01:30:40;;;;;;;0.30;0.20;;;8.30;99.90;;;;;;20532806;28;20598;-73
2021/03/20 01:40:47;;;;;;;0.47;0.47;;;8.10;99.90;;;;;;20539051;28;20200;-73
2021/03/20 01:50:55;;;;;;;0.20;0.20;;;8.20;99.90;;;;;;20541743;28;20731;-73
2021/03/20 02:01:06;;;;;;;0.20;0.10;;;8.40;99.90;;;;;;20627902;23;20930;-74
2021/03/20 02:11:16;;;;;;;0.20;0.10;;;8.20;99.90;;;;;;20536265;28;20228;-73
2021/03/20 02:21:24;;;;;;;8.77;1.23;;;8.20;99.90;;;;;;20533960;28;20196;-72
2021/03/20 02:31:41;;;;;;;0.20;0.10;;;7.90;99.90;;;;;;20533835;28;20216;-72
2021/03/20 02:41:54;;;;;;;0.20;0.20;;;7.90;99.90;;;;;;20528873;28;20200;-72
2021/03/20 02:52:02;;;;;;;0.40;0.40;;;7.90;99.90;;;;;;20533153;28;20242;-71
2021/03/20 03:02:09;;;;;;;0.30;0.30;;;8.50;99.90;;;;;;20544083;23;20240;-70
2021/03/20 03:12:15;;;;;;;0.20;0.10;;;8.30;99.90;;;;;;20534759;28;20320;-70
2021/03/20 03:22:24;;;;;;;0.20;0.10;;;8.20;99.90;;;;;;20532159;28;20193;-71
2021/03/20 03:32:32;;;;;;;1.03;0.70;;;7.70;99.90;;;;;;20529822;28;20270;-72
2021/03/20 03:42:36;;;;;;;0.43;0.43;;;7.40;99.90;;;;;;20532749;28;20249;-71
2021/03/20 03:52:39;;;;;;;1.60;1.33;;;6.90;99.90;;;;;;20528718;28;20689;-71
2021/03/20 04:03:07;;;;;;;0.20;0.10;;;7.20;99.90;;;;;;20545557;23;21207;-74
2021/03/20 04:13:18;;;;;;;0.40;0.20;;;7.30;99.90;;;;;;20529118;28;20232;-76
2021/03/20 04:23:25;;;;;;;0.83;0.83;;;7.40;99.90;;;;;;20530476;28;20864;-74
2021/03/20 04:33:34;;;;;;;0.27;0.20;;;7.00;99.90;;;;;;20527977;28;20322;-77
2021/03/20 04:43:39;;;;;;;0.20;0.17;;;7.20;99.90;;;;;;20525507;28;20196;-74
2021/03/20 05:03:58;;;;;;;0.40;0.40;;;8.20;99.90;;;;;;20553684;23;20235;-73
2021/03/20 05:14:08;;;;;;;0.20;0.20;;;8.30;99.90;;;;;;20543712;28;20247;-72
2021/03/20 05:24:16;;;;;;;0.90;0.60;;;8.30;99.90;;;;;;20550411;28;20282;-72
2021/03/20 05:34:23;;;;;;;0.33;0.33;;;8.00;99.90;;;;;;20571025;28;20309;-72
2021/03/20 05:44:43;;;;;;;0.50;0.50;;;7.60;99.90;;;;;;20541860;28;20210;-73
2021/03/20 05:55:02;;;;;;;0.73;0.73;;;7.60;99.90;;;;;;20537535;28;20234;-73
2021/03/20 06:05:20;;;;;;;0.37;0.37;;;7.80;99.90;;;;;;20538985;28;20224;-73
2021/03/20 06:15:42;;;;;;;0.20;0.20;;;8.20;99.90;;;;;;20539028;28;20697;-74
2021/03/20 06:26:01;;;;;;;0.20;0.10;;;7.90;99.90;;;;;;20538897;28;20279;-72
2021/03/20 06:36:08;;;;;;;0.20;0.20;;;7.90;99.90;;;;;;20536001;28;20204;-72
2021/03/20 06:46:16;;;;;;;1.63;0.80;;;8.00;99.90;;;;;;20537566;28;20763;-73
2021/03/20 06:56:19;;;;;;;0.20;0.20;;;8.20;99.90;;;;;;20536103;28;20204;-72
2021/03/20 07:06:32;;;;;;;0.40;0.40;;;8.10;99.90;;;;;;20535686;28;20243;-74
2021/03/20 07:16:55;;;;;;;0.40;0.40;;;8.40;99.90;;;;;;20537436;28;20192;-73
2021/03/20 07:27:01;;;;;;;1.03;0.47;;;8.70;99.90;;;;;;20455504;28;20297;-73
2021/03/20 07:37:08;;;;;;;0.87;0.73;;;9.00;99.90;;;;;;20453072;29;20292;-73
2021/03/20 07:47:15;;;;;;;0.20;0.10;;;9.20;99.90;;;;;;20452116;29;20231;-73
2021/03/20 07:57:18;;;;;;;0.20;0.10;;;9.40;99.90;;;;;;20452783;29;20338;-74
2021/03/20 08:07:34;;;;;;;0.20;0.20;;;9.70;99.90;;;;;;20446882;29;20233;-71
2021/03/20 08:17:36;;;;;;;0.20;0.20;;;9.90;99.90;;;;;;20459464;28;20747;-71
2021/03/20 08:27:51;;;;;;;0.20;0.10;;;10.20;99.90;;;;;;20497290;28;20236;-72
2021/03/20 08:38:22;;;;;;;0.63;0.40;;;10.30;99.90;;;;;;20492457;28;20200;-71
2021/03/20 08:48:44;;;;;;;0.63;0.63;;;10.60;99.90;;;;;;20516284;28;20228;-73
2021/03/20 08:58:58;;;;;;;0.30;0.30;;;10.80;99.90;;;;;;20510787;28;20473;-72
2021/03/20 09:09:11;;;;;;;0.83;0.80;;;11.20;99.90;;;;;;20532747;28;20235;-72
2021/03/20 09:19:20;;;;;;;0.27;0.23;;;11.40;99.90;;;;;;20527626;28;20343;-73
2021/03/20 09:29:26;;;;;;;0.43;0.20;;;11.70;99.90;;;;;;20535182;28;20632;-72
2021/03/20 09:39:42;;;;;;;0.40;0.40;;;12.40;99.90;;;;;;20484885;28;20193;-76
2021/03/20 09:49:55;;;;;;;1.87;0.70;;;12.50;99.90;;;;;;20477909;28;20229;-70
2021/03/20 09:59:58;;;;;;;0.30;0.30;;;12.90;99.90;;;;;;20498516;28;20226;-73
2021/03/20 10:10:09;;;;;;;5.10;1.10;;;13.20;99.90;;;;;;20458269;28;20284;-77
2021/03/20 10:20:17;;;;;;;0.53;0.43;;;14.00;99.90;;;;;;20485341;28;20208;-74
2021/03/20 10:30:24;;;;;;;0.60;0.40;;;14.30;99.90;;;;;;20452549;28;20249;-72
2021/03/20 10:40:28;;;;;;;0.90;0.60;;;14.50;99.90;;;;;;20452233;28;20197;-72
2021/03/20 10:50:35;;;;;;;1.23;0.70;;;15.00;99.90;;;;;;20451826;28;20229;-74
2021/03/20 11:00:43;;;;;;;0.30;0.30;;;15.90;99.90;;;;;;20456549;28;20228;-72
2021/03/20 11:10:50;;;;;;;0.80;0.80;;;16.50;99.90;;;;;;20528929;28;20227;-73
2021/03/20 11:20:54;;;;;;;0.23;0.20;;;17.20;99.90;;;;;;20530485;28;20192;-73
2021/03/20 11:30:59;;;;;;;2.07;1.27;;;17.20;99.90;;;;;;20529101;28;20235;-74
2021/03/20 11:41:24;;;;;;;19.37;5.33;;;17.80;99.90;;;;;;20528191;28;20569;-72
2021/03/20 11:51:32;;;;;;;0.50;0.50;;;18.10;99.90;;;;;;20531745;28;20228;-70
2021/03/20 12:01:49;;;;;;;0.90;0.50;;;17.70;99.90;;;;;;20530324;28;20322;-71
2021/03/20 12:11:57;;;;;;;0.60;0.60;;;18.90;99.90;;;;;;20540204;28;20650;-71
2021/03/20 12:22:07;;;;;;;0.83;0.70;;;19.10;99.90;;;;;;20502070;28;20291;-76
2021/03/20 12:32:32;;;;;;;1.13;1.00;;;20.40;99.90;;;;;;20462048;29;20575;-73
2021/03/20 12:42:35;;;;;;;1.03;0.70;;;20.10;99.90;;;;;;20460322;29;20221;-72
2021/03/20 12:52:39;;;;;;;0.30;0.30;;;20.50;99.90;;;;;;20460384;28;20225;-69
2021/03/20 13:02:42;;;;;;;0.50;0.30;;;19.70;99.90;;;;;;20491121;28;20232;-72
2021/03/20 13:12:47;;;;;;;4.67;1.43;;;19.50;99.90;;;;;;20536376;28;20314;-71
2021/03/20 13:22:52;;;;;;;2.37;0.40;;;19.90;99.90;;;;;;20526096;28;20418;-69
2021/03/20 13:32:57;;;;;;;0.63;0.33;;;20.60;99.90;;;;;;20537085;28;20250;-69
2021/03/20 13:43:01;;;;;;;0.50;0.47;;;21.30;99.90;;;;;;20539229;28;20204;-71
2021/03/20 13:53:06;;;;;;;1.70;0.43;;;21.60;99.90;;;;;;20534073;28;20231;-72
2021/03/20 14:03:09;;;;;;;0.77;0.60;;;22.00;99.90;;;;;;20537769;28;20967;-70
2021/03/20 14:13:15;;;;;;;1.13;0.40;;;22.00;99.90;;;;;;20535401;28;20267;-70
2021/03/20 14:23:20;;;;;;;1.63;1.17;;;22.00;99.90;;;;;;20534355;28;20193;-72
2021/03/20 14:33:25;;;;;;;0.70;0.50;;;22.20;99.90;;;;;;20536542;28;20692;-71
2021/03/20 14:43:29;;;;;;;0.47;0.33;;;21.10;99.90;;;;;;20535360;28;20459;-72
2021/03/20 14:53:32;;;;;;;0.87;0.50;;;19.20;99.90;;;;;;20537747;28;20366;-71
2021/03/20 15:03:35;;;;;;;3.43;0.60;;;22.10;99.90;;;;;;20537408;28;20561;-71
2021/03/20 15:13:39;;;;;;;5.70;0.60;;;21.20;99.90;;;;;;20534218;28;20223;-71
2021/03/20 15:23:42;;;;;;;3.87;0.57;;;21.30;99.90;;;;;;20489540;28;20212;-70
2021/03/20 15:33:46;;;;;;;0.60;0.43;;;20.70;99.90;;;;;;20484795;28;20307;-71
2021/03/20 15:43:49;;;;;;;3.23;0.60;;;21.30;99.90;;;;;;20453581;28;20204;-71
2021/03/20 15:53:53;;;;;;;5.23;0.60;;;21.20;99.90;;;;;;20458516;28;20231;-72
2021/03/20 16:03:55;;;;;;;0.70;0.63;;;20.70;99.90;;;;;;20453061;28;20283;-72
2021/03/20 16:13:59;;;;;;;1.47;0.67;;;19.20;98.40;;;;;;20448401;28;20232;-69
2021/03/20 16:24:03;;;;;;;0.47;0.40;;;18.60;99.90;;;;;;20508636;28;20205;-70
2021/03/20 16:34:06;;;;;;;4.83;0.80;;;17.70;99.90;;;;;;20524686;28;20236;-72
2021/03/20 16:44:10;;;;;;;1.70;1.30;;;16.40;99.90;;;;;;20527283;28;20230;-69
2021/03/20 16:54:13;;;;;;;0.30;0.20;;;16.00;99.30;;;;;;20537589;28;20231;-72
2021/03/20 17:04:16;;;;;;;0.30;0.30;;;15.60;98.90;;;;;;20540737;28;20231;-70
2021/03/20 17:14:20;;;;;;;0.37;0.30;;;14.90;98.50;;;;;;20530089;28;20231;-72
2021/03/20 17:24:22;;;;;;;0.63;0.50;;;14.40;98.60;;;;;;20515773;28;20257;-71
2021/03/20 17:34:26;;;;;;;0.20;0.10;;;13.80;99.10;;;;;;20517557;28;20243;-72
2021/03/20 17:44:28;;;;;;;0.20;0.20;;;13.40;98.60;;;;;;20537130;28;20274;-69
2021/03/20 17:54:32;;;;;;;5.03;1.10;;;13.00;99.60;;;;;;20535552;28;20232;-71
2021/03/20 18:04:34;;;;;;;0.20;0.20;;;12.70;99.90;;;;;;20529330;28;20751;-71
2021/03/20 18:14:38;;;;;;;1.13;0.50;;;12.50;99.90;;;;;;20516189;28;20235;-72
2021/03/20 18:24:41;;;;;;;2.20;0.83;;;12.10;99.90;;;;;;20536597;28;20547;-72
2021/03/20 18:34:44;;;;;;;0.60;0.57;;;11.90;99.90;;;;;;20519131;28;20224;-72
2021/03/20 18:44:47;;;;;;;2.30;0.83;;;11.80;99.90;;;;;;20525017;28;20200;-70
2021/03/20 18:54:50;;;;;;;0.50;0.40;;;11.60;99.90;;;;;;20531309;28;20219;-71
2021/03/20 19:04:55;;;;;;;0.53;0.33;;;11.60;99.90;;;;;;20531012;28;20318;-71
2021/03/20 19:14:59;;;;;;;1.87;0.90;;;11.60;99.90;;;;;;20527986;28;20593;-72
2021/03/20 19:25:04;;;;;;;0.40;0.37;;;11.20;99.90;;;;;;20517562;28;20195;-72
2021/03/20 19:35:09;;;;;;;0.67;0.60;;;10.60;99.90;;;;;;20525831;28;20232;-72
2021/03/20 19:45:13;;;;;;;5.73;2.00;;;10.30;99.90;;;;;;20517779;28;20362;-69
2021/03/20 19:55:16;;;;;;;4.40;2.10;;;9.80;99.90;;;;;;20525459;28;20239;-68
2021/03/20 20:05:22;;;;;;;2.43;1.40;;;9.00;99.90;;;;;;20528047;28;20357;-70
2021/03/20 20:15:26;;;;;;;1.07;0.93;;;9.30;99.90;;;;;;20519102;28;20243;-71
2021/03/20 20:25:29;;;;;;;1.70;0.70;;;9.40;99.90;;;;;;20473271;28;20220;-70
2021/03/20 20:35:33;;;;;;;0.50;0.50;;;9.80;99.90;;;;;;20509248;28;20631;-71
2021/03/20 20:45:36;;;;;;;0.50;0.50;;;9.80;99.90;;;;;;20505433;28;20188;-71
2021/03/20 20:55:40;;;;;;;1.13;0.97;;;9.60;99.90;;;;;;20506180;28;20451;-71
2021/03/20 21:05:42;;;;;;;1.23;0.90;;;9.50;99.90;;;;;;20526244;28;20267;-72
2021/03/20 21:15:46;;;;;;;1.40;1.23;;;9.50;99.90;;;;;;20537274;28;20591;-70
2021/03/20 21:25:49;;;;;;;1.13;0.80;;;9.30;99.90;;;;;;20540028;28;20200;-71
2021/03/20 21:35:53;;;;;;;0.33;0.30;;;9.40;99.90;;;;;;20538778;28;20238;-72
2021/03/20 21:45:56;;;;;;;3.20;1.30;;;9.40;99.90;;;;;;20537707;28;20546;-72
2021/03/20 21:56:00;;;;;;;2.37;1.23;;;9.00;99.90;;;;;;20512958;28;20263;-71
2021/03/20 22:06:02;;;;;;;1.80;1.70;;;8.90;99.90;;;;;;20514927;28;20583;-70
2021/03/20 22:16:07;;;;;;;1.33;0.87;;;8.90;99.90;;;;;;20530016;28;20239;-72
2021/03/20 22:26:10;;;;;;;2.00;0.90;;;8.70;99.90;;;;;;20515683;28;20204;-70
2021/03/20 22:36:15;;;;;;;2.93;1.03;;;8.70;99.90;;;;;;20498314;28;20736;-71
2021/03/20 22:46:18;;;;;;;1.03;0.90;;;8.60;99.90;;;;;;20505152;28;20379;-71
2021/03/20 22:56:22;;;;;;;1.90;0.80;;;8.50;99.90;;;;;;20500420;28;20286;-72
2021/03/20 23:06:24;;;;;;;1.83;1.30;;;8.50;99.90;;;;;;20512171;28;20777;-71
2021/03/20 23:16:32;;;;;;;1.60;0.63;;;8.50;99.90;;;;;;20493129;28;20223;-72
2021/03/20 23:26:39;;;;;;;8.67;1.10;;;8.20;99.90;;;;;;20514021;28;20621;-71
2021/03/20 23:36:43;;;;;;;0.43;0.43;;;7.70;99.90;;;;;;20522775;28;20224;-72
2021/03/20 23:46:46;;;;;;;0.30;0.20;;;7.00;99.90;;;;;;20527831;28;20207;-72
2021/03/20 23:56:51;;;;;;;1.30;0.80;;;7.20;99.90;;;;;;20515474;28;20789;-71
